createdAt,value
2019-02-21T00:02:02.981Z,101632.94
2019-02-21T00:04:33.399Z,101625.92
2019-02-21T00:07:01.943Z,101619.80
2019-02-21T00:09:32.519Z,101624.59
2019-02-21T00:12:01.409Z,101626.80
2019-02-21T00:14:32.348Z,101630.73
2019-02-21T00:17:00.912Z,101633.74
2019-02-21T00:19:31.101Z,101631.56
2019-02-21T00:22:00.344Z,101631.97
2019-02-21T00:24:31.610Z,101630.64
2019-02-21T00:27:01.926Z,101633.26
2019-02-21T00:29:31.123Z,101633.69
2019-02-21T00:32:04.707Z,101639.80
2019-02-21T00:34:36.738Z,101643.28
2019-02-21T00:37:05.292Z,101643.70
2019-02-21T00:39:34.027Z,101639.73
2019-02-21T00:42:03.951Z,101634.88
2019-02-21T00:44:35.621Z,101640.13
2019-02-21T00:47:05.561Z,101635.75
2019-02-21T00:49:35.798Z,101631.36
2019-02-21T00:52:06.862Z,101636.64
2019-02-21T00:54:35.615Z,101633.16
2019-02-21T00:57:09.240Z,101634.52
2019-02-21T00:59:37.457Z,101634.95
2019-02-21T01:02:06.111Z,101638.89
2019-02-21T01:04:36.147Z,101634.55
2019-02-21T01:07:04.687Z,101642.43
2019-02-21T01:09:36.648Z,101642.45
2019-02-21T01:12:08.995Z,101637.66
2019-02-21T01:14:38.082Z,101634.58
2019-02-21T01:17:06.784Z,101640.26
2019-02-21T01:19:35.367Z,101646.36
2019-02-21T01:22:03.980Z,101637.57
2019-02-21T01:24:34.572Z,101635.37
2019-02-21T01:27:03.468Z,101633.47
2019-02-21T01:29:34.610Z,101637.30
2019-02-21T01:32:03.496Z,101634.58
2019-02-21T01:34:32.262Z,101627.49
2019-02-21T01:37:03.024Z,101629.61
2019-02-21T01:39:32.874Z,101631.40
2019-02-21T01:42:05.729Z,101623.08
2019-02-21T01:44:36.084Z,101625.97
2019-02-21T01:47:04.642Z,101625.97
2019-02-21T01:49:33.556Z,101629.98
2019-02-21T01:52:02.085Z,101623.91
2019-02-21T01:54:30.808Z,101630.50
2019-02-21T01:57:04.110Z,101630.48
2019-02-21T01:59:32.673Z,101626.91
2019-02-21T02:02:02.584Z,101629.75
2019-02-21T02:04:31.511Z,101631.40
2019-02-21T02:07:01.427Z,101626.51
2019-02-21T02:09:34.337Z,101631.57
2019-02-21T02:12:03.358Z,101634.01
2019-02-21T02:14:32.204Z,101626.02
2019-02-21T02:17:01.055Z,101628.59
2019-02-21T02:19:29.787Z,101628.53
2019-02-21T02:22:00.074Z,101628.09
2019-02-21T02:24:30.900Z,101633.81
2019-02-21T02:27:02.682Z,101632.56
2019-02-21T02:29:31.965Z,101630.37
2019-02-21T02:32:01.044Z,101631.20
2019-02-21T02:34:30.266Z,101631.67
2019-02-21T02:37:00.386Z,101628.65
2019-02-21T02:39:28.980Z,101632.59
2019-02-21T02:41:57.943Z,101639.69
2019-02-21T02:44:29.717Z,101643.67
2019-02-21T02:47:01.530Z,101642.48
2019-02-21T02:49:32.797Z,101647.81
2019-02-21T02:52:02.115Z,101651.38
2019-02-21T02:54:30.830Z,101657.89
2019-02-21T02:57:01.071Z,101652.55
2019-02-21T02:59:40.271Z,101655.13
2019-02-21T03:02:02.293Z,101651.19
2019-02-21T03:04:33.201Z,101658.57
2019-02-21T03:07:04.549Z,101652.84
2019-02-21T03:09:35.576Z,101662.42
2019-02-21T03:12:04.148Z,101664.69
2019-02-21T03:14:33.420Z,101663.55
2019-02-21T03:17:01.965Z,101659.20
2019-02-21T03:19:35.931Z,101659.28
2019-02-21T03:22:08.225Z,101658.44
2019-02-21T03:24:36.795Z,101658.80
2019-02-21T03:27:05.356Z,101663.69
2019-02-21T03:29:35.745Z,101660.53
2019-02-21T03:32:07.775Z,101656.73
2019-02-21T03:34:36.622Z,101654.28
2019-02-21T03:37:07.558Z,101650.14
2019-02-21T03:39:39.697Z,101660.03
2019-02-21T03:42:10.020Z,101654.14
2019-02-21T03:44:38.842Z,101649.05
2019-02-21T03:47:09.584Z,101642.77
2019-02-21T03:49:38.579Z,101646.13
2019-02-21T03:52:09.400Z,101642.15
2019-02-21T03:54:39.874Z,101644.38
2019-02-21T03:57:09.792Z,101643.02
2019-02-21T03:59:40.313Z,101645.16
2019-02-21T04:02:08.873Z,101644.41
2019-02-21T04:04:40.776Z,101641.27
2019-02-21T04:07:12.812Z,101646.48
2019-02-21T04:09:41.898Z,101641.27
2019-02-21T04:12:10.656Z,101631.59
2019-02-21T04:14:40.940Z,101630.19
2019-02-21T04:17:09.490Z,101625.33
2019-02-21T04:19:38.041Z,101626.64
2019-02-21T04:22:06.805Z,101633.23
2019-02-21T04:24:35.559Z,101637.23
2019-02-21T04:27:05.878Z,101642.51
2019-02-21T04:29:34.760Z,101636.86
2019-02-21T04:32:16.617Z,101630.78
2019-02-21T04:34:36.708Z,101631.16
2019-02-21T04:37:05.276Z,101630.65
2019-02-21T04:39:33.817Z,101626.31
2019-02-21T04:42:02.711Z,101621.97
2019-02-21T04:44:31.425Z,101629.47
2019-02-21T04:47:00.167Z,101621.24
2019-02-21T04:49:29.370Z,101627.80
2019-02-21T04:51:59.608Z,101621.19
2019-02-21T04:54:31.373Z,101618.17
2019-02-21T04:57:00.106Z,101621.72
2019-02-21T04:59:30.999Z,101619.81
2019-02-21T05:01:59.734Z,101618.17
2019-02-21T05:04:28.301Z,101616.89
2019-02-21T05:06:57.565Z,101620.52
2019-02-21T05:09:27.294Z,101616.10
2019-02-21T05:11:56.766Z,101620.61
2019-02-21T05:14:27.554Z,101618.94
2019-02-21T05:17:00.532Z,101612.42
2019-02-21T05:19:30.028Z,101609.80
2019-02-21T05:22:02.028Z,101607.16
2019-02-21T05:24:32.586Z,101617.31
2019-02-21T05:27:09.448Z,101615.59
2019-02-21T05:29:38.386Z,101619.08
2019-02-21T05:32:23.676Z,101617.88
2019-02-21T05:35:20.719Z,101618.75
2019-02-21T05:38:14.104Z,101619.70
2019-02-21T05:41:04.386Z,101622.47
2019-02-21T05:43:52.218Z,101618.95
2019-02-21T05:46:57.078Z,101621.96
2019-02-21T05:49:44.676Z,101624.13
2019-02-21T05:52:22.707Z,101618.02
2019-02-21T05:54:58.025Z,101617.50
2019-02-21T05:57:32.061Z,101621.41
2019-02-21T06:00:19.636Z,101619.16
2019-02-21T06:03:14.389Z,101617.38
2019-02-21T06:06:04.738Z,101613.72
2019-02-21T06:08:54.997Z,101614.15
2019-02-21T06:11:34.768Z,101619.27
2019-02-21T06:14:23.789Z,101623.95
2019-02-21T06:17:19.856Z,101620.37
2019-02-21T06:20:18.563Z,101632.25
2019-02-21T06:23:10.554Z,101636.50
2019-02-21T06:25:54.511Z,101640.37
2019-02-21T06:28:30.552Z,101653.98
2019-02-21T06:31:06.583Z,101647.39
2019-02-21T06:33:35.134Z,101645.65
2019-02-21T06:36:03.672Z,101646.00
2019-02-21T06:38:33.674Z,101653.80
2019-02-21T06:41:07.084Z,101657.27
2019-02-21T06:43:36.438Z,101655.54
2019-02-21T06:46:06.990Z,101659.44
2019-02-21T06:48:39.060Z,101659.39
2019-02-21T06:51:09.914Z,101660.63
2019-02-21T06:53:40.049Z,101667.61
2019-02-21T06:56:08.634Z,101672.94
2019-02-21T06:58:42.270Z,101672.39
2019-02-21T07:01:10.548Z,101675.41
2019-02-21T07:03:41.012Z,101680.22
2019-02-21T07:06:09.741Z,101678.90
2019-02-21T07:08:40.119Z,101678.52
2019-02-21T07:11:12.237Z,101678.05
2019-02-21T07:13:40.793Z,101682.00
2019-02-21T07:16:13.330Z,101686.81
2019-02-21T07:18:41.976Z,101688.09
2019-02-21T07:21:13.416Z,101682.37
2019-02-21T07:23:45.629Z,101686.67
2019-02-21T07:26:19.484Z,101687.05
2019-02-21T07:28:50.577Z,101685.67
2019-02-21T07:31:28.796Z,101684.72
2019-02-21T07:33:53.327Z,101686.84
2019-02-21T07:36:25.334Z,101675.81
2019-02-21T07:39:13.671Z,101673.63
2019-02-21T07:41:31.958Z,101670.59
2019-02-21T07:44:11.300Z,101684.58
2019-02-21T07:46:34.256Z,101678.35
2019-02-21T07:49:02.974Z,101677.44
2019-02-21T07:51:35.944Z,101684.45
2019-02-21T07:54:05.586Z,101687.75
2019-02-21T07:56:41.973Z,101687.75
2019-02-21T07:59:12.095Z,101687.37
2019-02-21T08:01:42.778Z,101691.70
2019-02-21T08:04:14.783Z,101687.72
2019-02-21T08:06:47.591Z,101686.39
2019-02-21T08:09:18.859Z,101701.45
2019-02-21T08:11:51.456Z,101701.45
2019-02-21T08:14:22.077Z,101703.13
2019-02-21T08:16:51.037Z,101703.10
2019-02-21T08:19:24.340Z,101709.70
2019-02-21T08:22:00.150Z,101709.14
2019-02-21T08:24:33.940Z,101705.28
2019-02-21T08:27:05.857Z,101706.86
2019-02-21T08:29:34.766Z,101706.86
2019-02-21T08:32:07.621Z,101703.26
2019-02-21T08:34:48.168Z,101706.11
2019-02-21T08:37:20.890Z,101708.61
2019-02-21T08:39:50.019Z,101706.62
2019-02-21T08:42:22.010Z,101709.85
2019-02-21T08:44:50.771Z,101709.85
2019-02-21T08:47:19.934Z,101709.50
2019-02-21T08:49:51.710Z,101715.20
2019-02-21T08:52:22.223Z,101717.06
2019-02-21T08:54:59.934Z,101717.45
2019-02-21T08:57:21.677Z,101717.10
2019-02-21T08:59:52.802Z,101723.42
2019-02-21T09:02:23.449Z,101722.28
2019-02-21T09:04:54.047Z,101732.24
2019-02-21T09:07:22.972Z,101744.73
2019-02-21T09:09:53.118Z,101740.83
2019-02-21T09:12:22.080Z,101740.83
2019-02-21T09:14:52.610Z,101753.54
2019-02-21T09:17:22.857Z,101748.61
2019-02-21T09:19:51.798Z,101747.72
2019-02-21T09:22:22.598Z,101753.66
2019-02-21T09:24:54.493Z,101743.09
2019-02-21T09:27:27.000Z,101747.91
2019-02-21T09:29:59.444Z,101751.72
2019-02-21T09:32:28.179Z,101746.75
2019-02-21T09:35:00.693Z,101735.78
2019-02-21T09:37:31.525Z,101741.03
2019-02-21T09:40:03.591Z,101741.03
2019-02-21T09:42:32.616Z,101750.94
2019-02-21T09:45:01.650Z,101754.70
2019-02-21T09:47:31.365Z,101748.78
2019-02-21T09:50:00.985Z,101757.49
2019-02-21T09:52:31.839Z,101755.95
2019-02-21T09:55:02.367Z,101767.52
2019-02-21T09:57:35.004Z,101764.83
2019-02-21T10:00:06.704Z,101751.16
2019-02-21T10:02:39.023Z,101763.16
2019-02-21T10:05:09.735Z,101762.09
2019-02-21T10:07:38.297Z,101753.34
2019-02-21T10:10:09.346Z,101747.83
2019-02-21T10:12:38.270Z,101752.22
2019-02-21T10:15:09.575Z,101757.23
2019-02-21T10:17:43.572Z,101760.13
2019-02-21T10:20:18.806Z,101756.39
2019-02-21T10:22:49.393Z,101756.05
2019-02-21T10:25:23.678Z,101750.05
2019-02-21T10:27:52.625Z,101750.20
2019-02-21T10:30:25.135Z,101749.78
2019-02-21T10:32:54.574Z,101752.37
2019-02-21T10:35:25.536Z,101756.45
2019-02-21T10:37:54.549Z,101755.55
2019-02-21T10:40:29.052Z,101757.25
2019-02-21T10:42:58.070Z,101744.98
2019-02-21T10:45:30.199Z,101747.71
2019-02-21T10:48:00.599Z,101738.39
2019-02-21T10:50:29.230Z,101737.46
2019-02-21T10:53:01.632Z,101740.00
2019-02-21T10:55:37.883Z,101733.64
2019-02-21T10:58:06.557Z,101731.79
2019-02-21T11:00:35.345Z,101718.05
2019-02-21T11:03:07.124Z,101717.27
2019-02-21T11:05:35.867Z,101708.13
2019-02-21T11:08:04.796Z,101723.16
2019-02-21T11:10:35.723Z,101713.22
2019-02-21T11:13:06.192Z,101709.30
2019-02-21T11:15:37.085Z,101705.85
2019-02-21T11:18:08.026Z,101702.61
2019-02-21T11:20:36.553Z,101695.47
2019-02-21T11:23:09.157Z,101696.91
2019-02-21T11:25:37.988Z,101694.78
2019-02-21T11:28:11.208Z,101702.41
2019-02-21T11:30:43.236Z,101706.54
2019-02-21T11:33:12.151Z,101713.28
2019-02-21T11:35:45.411Z,101712.52
2019-02-21T11:38:20.690Z,101712.79
2019-02-21T11:40:52.934Z,101711.09
2019-02-21T11:43:23.479Z,101715.42
2019-02-21T11:45:57.363Z,101707.23
2019-02-21T11:48:27.434Z,101704.94
2019-02-21T11:50:57.535Z,101706.30
2019-02-21T11:53:27.813Z,101707.16
2019-02-21T11:55:56.587Z,101712.41
2019-02-21T11:58:25.174Z,101715.72
2019-02-21T12:00:55.293Z,101710.23
2019-02-21T12:03:28.030Z,101711.84
2019-02-21T12:06:00.671Z,101708.00
2019-02-21T12:08:30.015Z,101701.77
2019-02-21T12:11:01.422Z,101700.82
2019-02-21T12:13:31.701Z,101701.01
2019-02-21T12:16:00.755Z,101697.47
2019-02-21T12:18:34.470Z,101699.87
2019-02-21T12:21:03.315Z,101693.64
2019-02-21T12:23:36.862Z,101699.16
2019-02-21T12:26:06.687Z,101700.64
2019-02-21T12:28:38.739Z,101687.61
2019-02-21T12:31:11.072Z,101686.02
2019-02-21T12:33:46.429Z,101685.34
2019-02-21T12:36:17.134Z,101689.03
2019-02-21T12:38:46.466Z,101691.56
2019-02-21T12:41:18.747Z,101696.75
2019-02-21T12:43:48.772Z,101695.41
2019-02-21T12:46:21.257Z,101699.33
2019-02-21T12:48:50.239Z,101693.87
2019-02-21T12:51:20.872Z,101682.95
2019-02-21T12:53:53.352Z,101687.81
2019-02-21T12:56:25.242Z,101684.39
2019-02-21T12:58:54.208Z,101681.02
2019-02-21T13:01:27.294Z,101689.50
2019-02-21T13:03:55.963Z,101686.44
2019-02-21T13:06:24.543Z,101694.69
2019-02-21T13:08:55.802Z,101695.94
2019-02-21T13:11:25.325Z,101701.14
2019-02-21T13:13:54.411Z,101693.61
2019-02-21T13:16:24.672Z,101692.23
2019-02-21T13:19:02.979Z,101700.31
2019-02-21T13:21:36.519Z,101700.42
2019-02-21T13:24:07.596Z,101705.72
2019-02-21T13:26:38.045Z,101692.98
2019-02-21T13:29:12.927Z,101694.07
2019-02-21T13:31:42.966Z,101693.77
2019-02-21T13:34:16.330Z,101693.64
2019-02-21T13:36:46.278Z,101701.02
2019-02-21T13:39:17.630Z,101695.53
2019-02-21T13:41:46.786Z,101701.50
2019-02-21T13:44:17.462Z,101705.25
2019-02-21T13:46:49.826Z,101699.20
2019-02-21T13:49:25.164Z,101704.80
2019-02-21T13:51:54.083Z,101704.28
2019-02-21T13:54:26.273Z,101690.56
2019-02-21T13:56:55.010Z,101700.45
2019-02-21T13:59:30.583Z,101690.56
2019-02-21T14:02:03.516Z,101697.14
2019-02-21T14:04:33.289Z,101695.25
2019-02-21T14:07:07.025Z,101696.59
2019-02-21T14:09:34.873Z,101699.13
2019-02-21T14:12:05.573Z,101693.45
2019-02-21T14:14:35.652Z,101703.70
2019-02-21T14:17:04.168Z,101700.37
2019-02-21T14:19:37.790Z,101697.95
2019-02-21T14:22:06.681Z,101699.77
2019-02-21T14:24:37.456Z,101704.58
2019-02-21T14:27:08.854Z,101707.77
2019-02-21T14:29:39.650Z,101705.48
2019-02-21T14:32:08.317Z,101718.84
2019-02-21T14:34:40.343Z,101715.45
2019-02-21T14:37:17.046Z,101702.41
2019-02-21T14:39:46.991Z,101711.20
2019-02-21T14:42:26.033Z,101705.59
2019-02-21T14:44:58.036Z,101718.84
2019-02-21T14:47:26.936Z,101706.86
2019-02-21T14:49:55.708Z,101717.05
2019-02-21T14:52:24.454Z,101726.86
2019-02-21T14:54:56.227Z,101720.97
2019-02-21T14:57:26.813Z,101713.02
2019-02-21T15:00:01.925Z,101721.07
2019-02-21T15:02:33.868Z,101713.92
2019-02-21T15:05:03.976Z,101714.02
2019-02-21T15:07:33.201Z,101701.09
2019-02-21T15:10:02.478Z,101703.84
2019-02-21T15:12:35.608Z,101709.52
2019-02-21T15:15:09.782Z,101717.95
2019-02-21T15:17:40.025Z,101721.87
2019-02-21T15:20:10.718Z,101722.83
2019-02-21T15:22:42.568Z,101727.81
2019-02-21T15:25:11.140Z,101728.28
2019-02-21T15:27:41.943Z,101720.23
2019-02-21T15:30:13.481Z,101719.00
2019-02-21T15:32:44.837Z,101723.03
2019-02-21T15:35:13.988Z,101724.41
2019-02-21T15:37:45.406Z,101723.45
2019-02-21T15:40:17.482Z,101727.38
2019-02-21T15:42:46.400Z,101727.28
2019-02-21T15:45:22.779Z,101688.92
2019-02-21T15:47:49.544Z,101741.27
2019-02-21T15:50:19.879Z,101742.96
2019-02-21T15:52:51.032Z,101739.20
2019-02-21T15:55:21.495Z,101747.77
2019-02-21T15:57:50.455Z,101748.45
2019-02-21T16:00:27.066Z,101757.38
2019-02-21T16:02:55.941Z,101756.05
2019-02-21T16:05:26.181Z,101758.38
2019-02-21T16:07:57.870Z,101751.38
2019-02-21T16:10:30.236Z,101739.31
2019-02-21T16:12:59.902Z,101743.66
2019-02-21T16:15:31.974Z,101740.31
2019-02-21T16:18:02.874Z,101741.49
2019-02-21T16:20:33.417Z,101742.96
2019-02-21T16:23:05.828Z,101735.34
2019-02-21T16:25:38.071Z,101753.14
2019-02-21T16:28:06.835Z,101752.86
2019-02-21T16:30:35.601Z,101741.22
2019-02-21T16:33:09.380Z,101730.33
2019-02-21T16:35:43.844Z,101729.59
2019-02-21T16:38:15.772Z,101731.38
2019-02-21T16:40:47.111Z,101736.02
2019-02-21T16:43:16.083Z,101733.55
2019-02-21T16:45:53.522Z,101735.40
2019-02-21T16:48:18.592Z,101728.41
2019-02-21T16:50:48.526Z,101735.48
2019-02-21T16:53:17.577Z,101733.98
2019-02-21T16:55:46.865Z,101734.11
2019-02-21T16:58:15.431Z,101739.54
2019-02-21T17:00:54.745Z,101739.16
2019-02-21T17:03:19.986Z,101748.05
2019-02-21T17:05:51.898Z,101745.77
2019-02-21T17:08:22.408Z,101753.94
2019-02-21T17:10:50.946Z,101757.39
2019-02-21T17:13:22.137Z,101750.83
2019-02-21T17:15:51.527Z,101745.95
2019-02-21T17:18:27.158Z,101752.70
2019-02-21T17:20:58.107Z,101754.97
2019-02-21T17:23:28.375Z,101760.09
2019-02-21T17:26:00.475Z,101763.72
2019-02-21T17:28:29.197Z,101771.61
2019-02-21T17:30:58.006Z,101769.56
2019-02-21T17:33:31.339Z,101774.95
2019-02-21T17:36:01.247Z,101781.09
2019-02-21T17:38:33.942Z,101790.66
2019-02-21T17:41:04.121Z,101796.41
2019-02-21T17:43:36.088Z,101803.46
2019-02-21T17:46:04.818Z,101810.80
2019-02-21T17:48:35.055Z,101812.55
2019-02-21T17:51:07.351Z,101811.70
2019-02-21T17:53:39.236Z,101820.28
2019-02-21T17:56:08.502Z,101824.68
2019-02-21T17:58:41.814Z,101826.61
2019-02-21T18:01:11.989Z,101823.95
2019-02-21T18:03:40.914Z,101822.67
2019-02-21T18:06:14.765Z,101814.77
2019-02-21T18:08:43.662Z,101821.22
2019-02-21T18:11:12.778Z,101815.02
2019-02-21T18:13:41.347Z,101816.39
2019-02-21T18:16:10.677Z,101817.24
2019-02-21T18:18:39.924Z,101817.58
2019-02-21T18:21:08.891Z,101823.22
2019-02-21T18:23:39.600Z,101812.71
2019-02-21T18:26:17.754Z,101814.42
2019-02-21T18:28:46.474Z,101814.38
2019-02-21T18:31:16.997Z,101817.36
2019-02-21T18:33:46.126Z,101822.56
2019-02-21T18:36:15.402Z,101827.52
2019-02-21T18:38:44.074Z,101831.41
2019-02-21T18:41:15.208Z,101824.88
2019-02-21T18:43:49.540Z,101828.38
2019-02-21T18:46:18.402Z,101825.53
2019-02-21T18:48:47.677Z,101813.05
2019-02-21T18:51:18.900Z,101820.48
2019-02-21T18:53:47.939Z,101824.83
2019-02-21T18:56:20.285Z,101825.64
2019-02-21T18:58:48.818Z,101826.97
2019-02-21T19:01:22.521Z,101829.70
2019-02-21T19:03:51.147Z,101829.19
2019-02-21T19:06:21.554Z,101829.70
2019-02-21T19:08:50.393Z,101831.08
2019-02-21T19:11:18.974Z,101832.96
2019-02-21T19:13:54.275Z,101838.30
2019-02-21T19:16:24.484Z,101848.47
2019-02-21T19:18:53.322Z,101841.45
2019-02-21T19:21:23.522Z,101844.41
2019-02-21T19:23:54.384Z,101845.00
2019-02-21T19:26:27.903Z,101848.94
2019-02-21T19:29:00.104Z,101849.78
2019-02-21T19:31:28.363Z,101850.00
2019-02-21T19:34:01.173Z,101852.73
2019-02-21T19:36:30.222Z,101858.12
2019-02-21T19:39:02.035Z,101854.05
2019-02-21T19:41:30.583Z,101853.83
2019-02-21T19:44:08.378Z,101861.92
2019-02-21T19:46:31.347Z,101866.41
2019-02-21T19:49:03.419Z,101868.23
2019-02-21T19:51:37.208Z,101876.37
2019-02-21T19:54:06.275Z,101876.48
2019-02-21T19:56:39.921Z,101878.66
2019-02-21T19:59:08.038Z,101884.42
2019-02-21T20:01:39.554Z,101885.39
2019-02-21T20:04:08.396Z,101875.82
2019-02-21T20:06:37.125Z,101887.65
2019-02-21T20:09:08.739Z,101895.27
2019-02-21T20:11:40.746Z,101899.62
2019-02-21T20:14:13.916Z,101904.87
2019-02-21T20:16:46.041Z,101910.67
2019-02-21T20:19:19.336Z,101913.42
2019-02-21T20:21:51.142Z,101908.28
2019-02-21T20:24:21.080Z,101917.07
2019-02-21T20:26:50.031Z,101917.07
2019-02-21T20:29:18.769Z,101913.60
2019-02-21T20:31:48.424Z,101907.73
2019-02-21T20:34:20.248Z,101912.10
2019-02-21T20:36:51.336Z,101927.14
2019-02-21T20:39:22.872Z,101920.25
2019-02-21T20:41:52.930Z,101918.00
2019-02-21T20:44:23.416Z,101920.21
2019-02-21T20:46:53.060Z,101923.28
2019-02-21T20:49:28.780Z,101927.68
2019-02-21T20:51:59.234Z,101929.07
2019-02-21T20:54:32.563Z,101932.14
2019-02-21T20:57:03.068Z,101928.97
2019-02-21T20:59:31.939Z,101936.47
2019-02-21T21:02:04.015Z,101929.47
2019-02-21T21:04:36.267Z,101938.22
2019-02-21T21:07:05.172Z,101940.08
2019-02-21T21:09:35.878Z,101944.08
2019-02-21T21:12:05.151Z,101953.30
2019-02-21T21:14:35.543Z,101954.23
2019-02-21T21:17:05.666Z,101948.05
2019-02-21T21:19:36.723Z,101958.72
2019-02-21T21:22:07.062Z,101949.14
2019-02-21T21:24:36.009Z,101949.14
2019-02-21T21:27:04.566Z,101951.25
2019-02-21T21:29:35.028Z,101951.03
2019-02-21T21:32:04.633Z,101950.17
2019-02-21T21:34:38.076Z,101950.17
2019-02-21T21:37:08.751Z,101956.74
2019-02-21T21:39:38.824Z,101952.88
2019-02-21T21:42:09.659Z,101950.66
2019-02-21T21:44:38.603Z,101957.20
2019-02-21T21:47:07.500Z,101961.36
2019-02-21T21:49:38.434Z,101963.14
2019-02-21T21:52:07.532Z,101961.80
2019-02-21T21:54:40.952Z,101964.53
2019-02-21T21:57:12.918Z,101951.28
2019-02-21T21:59:43.673Z,101965.89
2019-02-21T22:02:15.898Z,101964.93
2019-02-21T22:04:48.142Z,101952.70
2019-02-21T22:07:17.077Z,101954.75
2019-02-21T22:09:46.347Z,101954.75
2019-02-21T22:12:17.322Z,101959.09
2019-02-21T22:14:47.599Z,101972.30
2019-02-21T22:17:18.159Z,101978.08
2019-02-21T22:19:50.426Z,101977.69
2019-02-21T22:22:24.087Z,101977.12
2019-02-21T22:24:54.002Z,101981.95
2019-02-21T22:27:24.848Z,101984.06
2019-02-21T22:29:55.803Z,101984.96
2019-02-21T22:32:26.437Z,101976.11
2019-02-21T22:34:56.518Z,101977.39
2019-02-21T22:37:25.247Z,101980.03
2019-02-21T22:39:55.725Z,101990.16
2019-02-21T22:42:24.696Z,101995.84
2019-02-21T22:44:54.600Z,101998.55
2019-02-21T22:47:24.106Z,102003.83
2019-02-21T22:49:54.304Z,101998.61
2019-02-21T22:52:25.087Z,102002.54
2019-02-21T22:54:55.854Z,102003.37
2019-02-21T22:57:26.987Z,102007.80
2019-02-21T22:59:59.126Z,102011.33
2019-02-21T23:02:28.143Z,102018.41
2019-02-21T23:05:31.149Z,102018.80
2019-02-21T23:08:22.682Z,102021.54
2019-02-21T23:10:53.151Z,102026.98
2019-02-21T23:13:22.033Z,102034.94
2019-02-21T23:15:50.945Z,102042.93
2019-02-21T23:18:21.371Z,102046.55
2019-02-21T23:20:51.487Z,102046.55
2019-02-21T23:23:22.122Z,102048.33
2019-02-21T23:25:52.633Z,102048.77
2019-02-21T23:28:22.062Z,102044.80
2019-02-21T23:30:54.735Z,102046.46
2019-02-21T23:33:24.909Z,102043.41
2019-02-21T23:36:01.394Z,102039.55
2019-02-21T23:38:31.977Z,102035.11
2019-02-21T23:41:02.553Z,102049.59
2019-02-21T23:43:34.411Z,102039.56
2019-02-21T23:46:03.497Z,102057.29
2019-02-21T23:48:32.049Z,102048.58
2019-02-21T23:51:00.986Z,102049.39
2019-02-21T23:53:34.337Z,102046.86
2019-02-21T23:56:02.863Z,102049.12
2019-02-21T23:58:31.580Z,102055.34
